sensor_id;sensor_type;location;lat;lon;timestamp;pressure;altitude;pressure_sealevel;temperature;humidity
63019;BME280;49105;46.046;10.760;2023-01-24T00:00:45;96491.84;;;1.93;75.58
63019;BME280;49105;46.046;10.760;2023-01-24T00:03:14;96499.06;;;1.91;75.80
63019;BME280;49105;46.046;10.760;2023-01-24T00:05:45;96498.66;;;1.94;75.94
63019;BME280;49105;46.046;10.760;2023-01-24T00:08:20;96498.88;;;1.99;75.71
63019;BME280;49105;46.046;10.760;2023-01-24T00:10:58;96499.09;;;2.05;76.04
63019;BME280;49105;46.046;10.760;2023-01-24T00:13:34;96505.09;;;1.98;75.51
63019;BME280;49105;46.046;10.760;2023-01-24T00:16:12;96508.50;;;1.92;76.01
63019;BME280;49105;46.046;10.760;2023-01-24T00:18:38;96509.50;;;1.91;75.81
63019;BME280;49105;46.046;10.760;2023-01-24T00:21:16;96517.34;;;1.91;76.21
63019;BME280;49105;46.046;10.760;2023-01-24T00:23:44;96514.72;;;1.91;76.26
63019;BME280;49105;46.046;10.760;2023-01-24T00:26:13;96512.31;;;1.90;75.91
63019;BME280;49105;46.046;10.760;2023-01-24T00:28:48;96507.09;;;1.90;75.77
63019;BME280;49105;46.046;10.760;2023-01-24T00:31:18;96508.28;;;1.87;75.87
63019;BME280;49105;46.046;10.760;2023-01-24T00:33:43;96519.09;;;1.84;76.16
63019;BME280;49105;46.046;10.760;2023-01-24T00:36:09;96520.75;;;1.85;75.83
63019;BME280;49105;46.046;10.760;2023-01-24T00:38:44;96515.09;;;1.88;76.10
63019;BME280;49105;46.046;10.760;2023-01-24T00:41:16;96522.56;;;1.91;75.78
63019;BME280;49105;46.046;10.760;2023-01-24T00:43:41;96527.38;;;1.94;75.66
63019;BME280;49105;46.046;10.760;2023-01-24T00:46:10;96525.19;;;1.98;75.60
63019;BME280;49105;46.046;10.760;2023-01-24T00:48:38;96530.00;;;2.01;75.59
63019;BME280;49105;46.046;10.760;2023-01-24T00:54:26;96530.75;;;1.88;76.05
63019;BME280;49105;46.046;10.760;2023-01-24T00:56:51;96537.00;;;1.87;76.05
63019;BME280;49105;46.046;10.760;2023-01-24T00:59:20;96534.59;;;1.86;75.89
63019;BME280;49105;46.046;10.760;2023-01-24T01:01:51;96541.41;;;1.87;75.92
63019;BME280;49105;46.046;10.760;2023-01-24T01:04:23;96537.63;;;1.89;75.95
63019;BME280;49105;46.046;10.760;2023-01-24T01:06:55;96541.63;;;1.92;75.84
63019;BME280;49105;46.046;10.760;2023-01-24T01:09:29;96546.84;;;1.85;75.50
63019;BME280;49105;46.046;10.760;2023-01-24T01:12:04;96556.63;;;1.77;76.04
63019;BME280;49105;46.046;10.760;2023-01-24T01:14:38;96558.22;;;1.71;76.22
63019;BME280;49105;46.046;10.760;2023-01-24T01:17:13;96551.97;;;1.72;76.21
63019;BME280;49105;46.046;10.760;2023-01-24T01:19:38;96551.59;;;1.75;75.70
63019;BME280;49105;46.046;10.760;2023-01-24T01:22:10;96556.63;;;1.77;75.72
63019;BME280;49105;46.046;10.760;2023-01-24T01:24:36;96564.28;;;1.78;76.01
63019;BME280;49105;46.046;10.760;2023-01-24T01:27:07;96568.25;;;1.74;75.95
63019;BME280;49105;46.046;10.760;2023-01-24T01:29:42;96565.22;;;1.70;75.99
63019;BME280;49105;46.046;10.760;2023-01-24T01:32:16;96565.22;;;1.70;75.82
63019;BME280;49105;46.046;10.760;2023-01-24T01:34:42;96568.06;;;1.69;75.89
63019;BME280;49105;46.046;10.760;2023-01-24T01:37:44;96569.81;;;1.68;76.08
63019;BME280;49105;46.046;10.760;2023-01-24T01:40:18;96565.44;;;1.69;75.74
63019;BME280;49105;46.046;10.760;2023-01-24T01:42:54;96567.63;;;1.72;75.96
63019;BME280;49105;46.046;10.760;2023-01-24T01:45:33;96571.25;;;1.71;75.54
63019;BME280;49105;46.046;10.760;2023-01-24T01:48:02;96575.44;;;1.65;75.93
63019;BME280;49105;46.046;10.760;2023-01-24T01:50:37;96576.03;;;1.61;75.90
63019;BME280;49105;46.046;10.760;2023-01-24T01:53:14;96583.66;;;1.62;75.93
63019;BME280;49105;46.046;10.760;2023-01-24T01:55:50;96580.66;;;1.65;75.90
63019;BME280;49105;46.046;10.760;2023-01-24T01:58:19;96580.09;;;1.70;76.02
63019;BME280;49105;46.046;10.760;2023-01-24T02:00:51;96590.16;;;1.73;75.77
63019;BME280;49105;46.046;10.760;2023-01-24T02:03:30;96583.72;;;1.76;75.54
63019;BME280;49105;46.046;10.760;2023-01-24T02:06:17;96588.56;;;1.79;75.79
63019;BME280;49105;46.046;10.760;2023-01-24T02:08:57;96590.38;;;1.78;75.53
63019;BME280;49105;46.046;10.760;2023-01-24T02:11:41;96594.94;;;1.69;75.50
63019;BME280;49105;46.046;10.760;2023-01-24T02:14:13;96599.09;;;1.64;76.15
63019;BME280;49105;46.046;10.760;2023-01-24T02:16:58;96598.50;;;1.62;75.78
63019;BME280;49105;46.046;10.760;2023-01-24T02:22:31;96602.16;;;1.67;76.27
63019;BME280;49105;46.046;10.760;2023-01-24T02:27:45;96604.16;;;1.65;75.88
63019;BME280;49105;46.046;10.760;2023-01-24T02:30:12;96604.31;;;1.64;76.16
63019;BME280;49105;46.046;10.760;2023-01-24T02:32:38;96601.72;;;1.64;75.83
63019;BME280;49105;46.046;10.760;2023-01-24T02:35:25;96607.94;;;1.63;76.30
63019;BME280;49105;46.046;10.760;2023-01-24T02:38:04;96605.75;;;1.66;76.49
63019;BME280;49105;46.046;10.760;2023-01-24T02:40:39;96610.34;;;1.64;75.76
63019;BME280;49105;46.046;10.760;2023-01-24T02:43:16;96609.09;;;1.54;75.69
63019;BME280;49105;46.046;10.760;2023-01-24T02:45:43;96614.69;;;1.51;76.33
63019;BME280;49105;46.046;10.760;2023-01-24T02:48:14;96612.72;;;1.53;76.37
63019;BME280;49105;46.046;10.760;2023-01-24T02:50:46;96611.13;;;1.58;76.13
63019;BME280;49105;46.046;10.760;2023-01-24T02:53:29;96615.56;;;1.64;76.14
63019;BME280;49105;46.046;10.760;2023-01-24T02:56:06;96622.22;;;1.67;75.86
63019;BME280;49105;46.046;10.760;2023-01-24T02:58:51;96626.59;;;1.60;76.16
63019;BME280;49105;46.046;10.760;2023-01-24T03:01:26;96629.19;;;1.60;75.99
63019;BME280;49105;46.046;10.760;2023-01-24T03:03:52;96635.63;;;1.64;75.94
63019;BME280;49105;46.046;10.760;2023-01-24T03:06:27;96632.72;;;1.73;76.13
63019;BME280;49105;46.046;10.760;2023-01-24T03:08:55;96637.72;;;1.75;75.56
63019;BME280;49105;46.046;10.760;2023-01-24T03:11:27;96636.50;;;1.71;75.54
63019;BME280;49105;46.046;10.760;2023-01-24T03:13:58;96637.66;;;1.68;76.15
63019;BME280;49105;46.046;10.760;2023-01-24T03:16:42;96637.28;;;1.65;76.37
63019;BME280;49105;46.046;10.760;2023-01-24T03:19:26;96636.66;;;1.63;76.10
63019;BME280;49105;46.046;10.760;2023-01-24T03:22:10;96630.81;;;1.61;76.19
63019;BME280;49105;46.046;10.760;2023-01-24T03:24:53;96626.59;;;1.60;75.98
63019;BME280;49105;46.046;10.760;2023-01-24T03:27:37;96633.22;;;1.62;76.36
63019;BME280;49105;46.046;10.760;2023-01-24T03:30:21;96630.69;;;1.69;75.67
63019;BME280;49105;46.046;10.760;2023-01-24T03:33:05;96627.44;;;1.67;76.02
63019;BME280;49105;46.046;10.760;2023-01-24T03:35:49;96642.72;;;1.70;75.66
63019;BME280;49105;46.046;10.760;2023-01-24T03:38:25;96639.47;;;1.68;76.17
63019;BME280;49105;46.046;10.760;2023-01-24T03:41:09;96642.25;;;1.60;76.08
63019;BME280;49105;46.046;10.760;2023-01-24T03:43:37;96643.63;;;1.56;76.17
63019;BME280;49105;46.046;10.760;2023-01-24T03:46:03;96643.81;;;1.54;75.97
63019;BME280;49105;46.046;10.760;2023-01-24T03:48:34;96641.41;;;1.53;76.08
63019;BME280;49105;46.046;10.760;2023-01-24T03:51:02;96647.22;;;1.55;76.20
63019;BME280;49105;46.046;10.760;2023-01-24T03:53:47;96651.28;;;1.57;76.01
63019;BME280;49105;46.046;10.760;2023-01-24T03:56:13;96649.47;;;1.58;75.95
63019;BME280;49105;46.046;10.760;2023-01-24T03:58:42;96650.28;;;1.58;76.09
63019;BME280;49105;46.046;10.760;2023-01-24T04:01:16;96647.22;;;1.55;75.79
63019;BME280;49105;46.046;10.760;2023-01-24T04:03:41;96647.59;;;1.52;76.03
63019;BME280;49105;46.046;10.760;2023-01-24T04:06:10;96649.78;;;1.48;76.57
63019;BME280;49105;46.046;10.760;2023-01-24T04:08:38;96646.94;;;1.43;75.96
63019;BME280;49105;46.046;10.760;2023-01-24T04:11:29;96647.38;;;1.46;76.01
63019;BME280;49105;46.046;10.760;2023-01-24T04:13:55;96643.38;;;1.51;75.71
63019;BME280;49105;46.046;10.760;2023-01-24T04:16:23;96649.25;;;1.53;75.81
63019;BME280;49105;46.046;10.760;2023-01-24T04:18:52;96648.59;;;1.51;76.04
63019;BME280;49105;46.046;10.760;2023-01-24T04:21:24;96642.53;;;1.43;76.14
63019;BME280;49105;46.046;10.760;2023-01-24T04:23:59;96633.47;;;1.39;75.81
63019;BME280;49105;46.046;10.760;2023-01-24T04:26:30;96636.41;;;1.30;76.32
63019;BME280;49105;46.046;10.760;2023-01-24T04:28:56;96634.59;;;1.23;76.08
63019;BME280;49105;46.046;10.760;2023-01-24T04:31:30;96635.94;;;1.19;76.22
63019;BME280;49105;46.046;10.760;2023-01-24T04:34:05;96643.50;;;1.14;76.03
63019;BME280;49105;46.046;10.760;2023-01-24T04:36:42;96641.34;;;1.18;76.06
63019;BME280;49105;46.046;10.760;2023-01-24T04:39:17;96633.16;;;1.21;75.89
63019;BME280;49105;46.046;10.760;2023-01-24T04:41:43;96626.31;;;1.20;76.13
63019;BME280;49105;46.046;10.760;2023-01-24T04:44:08;96632.34;;;1.20;75.94
63019;BME280;49105;46.046;10.760;2023-01-24T04:46:39;96638.72;;;1.18;75.79
63019;BME280;49105;46.046;10.760;2023-01-24T04:49:14;96641.91;;;1.13;75.85
63019;BME280;49105;46.046;10.760;2023-01-24T04:51:43;96647.06;;;1.07;75.98
63019;BME280;49105;46.046;10.760;2023-01-24T04:54:15;96643.84;;;1.05;76.21
63019;BME280;49105;46.046;10.760;2023-01-24T04:56:43;96640.59;;;1.03;75.98
63019;BME280;49105;46.046;10.760;2023-01-24T04:59:17;96644.97;;;0.95;76.10
63019;BME280;49105;46.046;10.760;2023-01-24T05:01:46;96656.44;;;0.80;76.25
63019;BME280;49105;46.046;10.760;2023-01-24T05:04:17;96663.47;;;0.79;76.36
63019;BME280;49105;46.046;10.760;2023-01-24T05:06:43;96651.59;;;0.77;76.63
63019;BME280;49105;46.046;10.760;2023-01-24T05:09:17;96659.63;;;0.75;76.63
63019;BME280;49105;46.046;10.760;2023-01-24T05:11:49;96662.22;;;0.75;76.49
63019;BME280;49105;46.046;10.760;2023-01-24T05:14:14;96668.03;;;0.77;76.74
63019;BME280;49105;46.046;10.760;2023-01-24T05:16:49;96669.28;;;0.81;76.42
63019;BME280;49105;46.046;10.760;2023-01-24T05:19:27;96671.28;;;0.79;76.94
63019;BME280;49105;46.046;10.760;2023-01-24T05:22:04;96670.47;;;0.79;76.70
63019;BME280;49105;46.046;10.760;2023-01-24T05:24:30;96672.09;;;0.80;77.22
63019;BME280;49105;46.046;10.760;2023-01-24T05:26:55;96669.91;;;0.83;77.01
63019;BME280;49105;46.046;10.760;2023-01-24T05:29:30;96669.28;;;0.81;76.48
63019;BME280;49105;46.046;10.760;2023-01-24T05:32:02;96673.31;;;0.84;76.53
63019;BME280;49105;46.046;10.760;2023-01-24T05:34:27;96668.16;;;0.90;77.05
63019;BME280;49105;46.046;10.760;2023-01-24T05:37:11;96674.63;;;0.94;76.82
63019;BME280;49105;46.046;10.760;2023-01-24T05:39:36;96675.44;;;0.95;76.35
63019;BME280;49105;46.046;10.760;2023-01-24T05:42:11;96679.47;;;0.97;76.88
63019;BME280;49105;46.046;10.760;2023-01-24T05:44:36;96675.84;;;0.98;76.61
63019;BME280;49105;46.046;10.760;2023-01-24T05:47:14;96678.47;;;0.98;76.18
63019;BME280;49105;46.046;10.760;2023-01-24T05:49:45;96690.09;;;0.96;76.20
63019;BME280;49105;46.046;10.760;2023-01-24T05:52:23;96696.47;;;0.93;76.91
63019;BME280;49105;46.046;10.760;2023-01-24T05:54:48;96697.09;;;0.95;77.08
63019;BME280;49105;46.046;10.760;2023-01-24T05:57:14;96696.72;;;0.98;76.57
63019;BME280;49105;46.046;10.760;2023-01-24T05:59:40;96691.94;;;1.02;76.97
63019;BME280;49105;46.046;10.760;2023-01-24T06:02:05;96696.78;;;1.05;76.21
63019;BME280;49105;46.046;10.760;2023-01-24T06:04:31;96700.84;;;1.08;76.25
63019;BME280;49105;46.046;10.760;2023-01-24T06:06:56;96704.53;;;0.98;76.45
63019;BME280;49105;46.046;10.760;2023-01-24T06:09:21;96713.41;;;0.83;76.36
63019;BME280;49105;46.046;10.760;2023-01-24T06:11:47;96713.13;;;0.78;76.26
63019;BME280;49105;46.046;10.760;2023-01-24T06:14:12;96722.31;;;0.73;77.11
63019;BME280;49105;46.046;10.760;2023-01-24T06:16:38;96730.13;;;0.73;76.95
63019;BME280;49105;46.046;10.760;2023-01-24T06:19:05;96737.34;;;0.71;76.49
63019;BME280;49105;46.046;10.760;2023-01-24T06:21:47;96739.50;;;0.68;76.78
63019;BME280;49105;46.046;10.760;2023-01-24T06:24:25;96739.38;;;0.76;76.90
63019;BME280;49105;46.046;10.760;2023-01-24T06:26:58;96742.13;;;0.89;76.97
63019;BME280;49105;46.046;10.760;2023-01-24T06:29:23;96748.47;;;0.80;76.57
63019;BME280;49105;46.046;10.760;2023-01-24T06:37:50;96760.44;;;0.60;76.87
63019;BME280;49105;46.046;10.760;2023-01-24T06:40:25;96770.25;;;0.58;77.01
63019;BME280;49105;46.046;10.760;2023-01-24T06:42:52;96774.09;;;0.62;76.78
63019;BME280;49105;46.046;10.760;2023-01-24T06:45:19;96777.13;;;0.65;77.24
63019;BME280;49105;46.046;10.760;2023-01-24T06:47:44;96788.34;;;0.66;77.25
63019;BME280;49105;46.046;10.760;2023-01-24T06:50:19;96788.66;;;0.71;77.09
63019;BME280;49105;46.046;10.760;2023-01-24T06:52:46;96792.13;;;0.78;76.97
63019;BME280;49105;46.046;10.760;2023-01-24T06:55:19;96793.66;;;0.87;77.25
63019;BME280;49105;46.046;10.760;2023-01-24T06:57:44;96786.69;;;0.94;77.16
63019;BME280;49105;46.046;10.760;2023-01-24T07:00:13;96782.94;;;0.97;76.96
63019;BME280;49105;46.046;10.760;2023-01-24T07:02:39;96777.16;;;1.02;76.87
63019;BME280;49105;46.046;10.760;2023-01-24T07:05:11;96779.41;;;1.05;76.89
63019;BME280;49105;46.046;10.760;2023-01-24T07:07:38;96775.78;;;1.06;76.27
63019;BME280;49105;46.046;10.760;2023-01-24T07:10:15;96784.53;;;0.98;76.44
63019;BME280;49105;46.046;10.760;2023-01-24T07:12:51;96788.06;;;0.90;76.72
63019;BME280;49105;46.046;10.760;2023-01-24T07:15:29;96776.38;;;0.86;76.72
63019;BME280;49105;46.046;10.760;2023-01-24T07:18:13;96794.00;;;0.84;77.33
63019;BME280;49105;46.046;10.760;2023-01-24T07:20:48;96803.06;;;0.88;76.88
63019;BME280;49105;46.046;10.760;2023-01-24T07:23:25;96803.69;;;0.90;77.01
63019;BME280;49105;46.046;10.760;2023-01-24T07:25:54;96804.69;;;0.89;76.62
63019;BME280;49105;46.046;10.760;2023-01-24T07:28:23;96809.53;;;0.92;76.81
63019;BME280;49105;46.046;10.760;2023-01-24T07:34:06;96810.53;;;0.91;76.32
63019;BME280;49105;46.046;10.760;2023-01-24T07:36:32;96813.16;;;0.91;77.42
63019;BME280;49105;46.046;10.760;2023-01-24T07:39:06;96809.34;;;0.94;77.19
63019;BME280;49105;46.046;10.760;2023-01-24T07:41:41;96810.59;;;0.98;76.95
63019;BME280;49105;46.046;10.760;2023-01-24T07:44:10;96805.84;;;1.02;77.28
63019;BME280;49105;46.046;10.760;2023-01-24T07:46:36;96817.50;;;1.06;76.77
63019;BME280;49105;46.046;10.760;2023-01-24T07:49:11;96816.78;;;1.12;76.76
63019;BME280;49105;46.046;10.760;2023-01-24T07:51:37;96819.19;;;1.13;76.87
63019;BME280;49105;46.046;10.760;2023-01-24T07:54:02;96818.03;;;1.16;76.23
63019;BME280;49105;46.046;10.760;2023-01-24T07:56:37;96819.28;;;1.20;76.73
63019;BME280;49105;46.046;10.760;2023-01-24T07:59:11;96827.38;;;1.10;76.38
63019;BME280;49105;46.046;10.760;2023-01-24T08:01:43;96825.88;;;1.01;76.70
63019;BME280;49105;46.046;10.760;2023-01-24T08:04:15;96824.19;;;0.93;76.90
63019;BME280;49105;46.046;10.760;2023-01-24T08:06:52;96822.94;;;0.89;76.93
63019;BME280;49105;46.046;10.760;2023-01-24T08:09:36;96833.91;;;0.85;77.16
63019;BME280;49105;46.046;10.760;2023-01-24T08:12:11;96832.47;;;0.82;76.60
63019;BME280;49105;46.046;10.760;2023-01-24T08:14:46;96833.81;;;0.78;77.32
63019;BME280;49105;46.046;10.760;2023-01-24T08:17:23;96839.31;;;0.83;77.56
63019;BME280;49105;46.046;10.760;2023-01-24T08:19:52;96840.38;;;0.89;77.11
63019;BME280;49105;46.046;10.760;2023-01-24T08:22:29;96840.63;;;0.94;77.19
63019;BME280;49105;46.046;10.760;2023-01-24T08:25:04;96841.44;;;0.94;77.17
63019;BME280;49105;46.046;10.760;2023-01-24T08:27:30;96845.78;;;0.87;76.91
63019;BME280;49105;46.046;10.760;2023-01-24T08:29:56;96855.41;;;0.87;76.94
63019;BME280;49105;46.046;10.760;2023-01-24T08:32:30;96860.41;;;0.88;77.16
63019;BME280;49105;46.046;10.760;2023-01-24T08:34:59;96860.06;;;0.91;77.23
63019;BME280;49105;46.046;10.760;2023-01-24T08:37:26;96864.63;;;0.89;76.97
63019;BME280;49105;46.046;10.760;2023-01-24T08:40:01;96856.00;;;0.89;77.08
63019;BME280;49105;46.046;10.760;2023-01-24T08:42:32;96860.22;;;0.90;77.00
63019;BME280;49105;46.046;10.760;2023-01-24T08:44:58;96864.19;;;0.86;77.20
63019;BME280;49105;46.046;10.760;2023-01-24T08:47:23;96866.97;;;0.84;77.06
63019;BME280;49105;46.046;10.760;2023-01-24T08:49:59;96858.44;;;0.90;77.07
63019;BME280;49105;46.046;10.760;2023-01-24T08:52:33;96854.31;;;0.96;76.81
63019;BME280;49105;46.046;10.760;2023-01-24T08:54:59;96857.97;;;1.02;77.13
63019;BME280;49105;46.046;10.760;2023-01-24T08:57:34;96860.47;;;1.10;77.15
63019;BME280;49105;46.046;10.760;2023-01-24T09:00:00;96868.19;;;1.18;77.35
63019;BME280;49105;46.046;10.760;2023-01-24T09:02:31;96871.50;;;1.27;77.64
63019;BME280;49105;46.046;10.760;2023-01-24T09:05:06;96877.81;;;1.32;77.45
63019;BME280;49105;46.046;10.760;2023-01-24T09:07:41;96877.75;;;1.47;76.97
63019;BME280;49105;46.046;10.760;2023-01-24T09:10:07;96868.00;;;1.56;76.92
63019;BME280;49105;46.046;10.760;2023-01-24T09:12:36;96872.84;;;1.59;76.71
63019;BME280;49105;46.046;10.760;2023-01-24T09:15:08;96873.28;;;1.62;76.59
63019;BME280;49105;46.046;10.760;2023-01-24T09:17:43;96873.53;;;1.67;77.19
63019;BME280;49105;46.046;10.760;2023-01-24T09:20:18;96871.56;;;1.69;76.98
63019;BME280;49105;46.046;10.760;2023-01-24T09:22:49;96869.19;;;1.74;76.82
63019;BME280;49105;46.046;10.760;2023-01-24T09:25:14;96863.66;;;1.84;77.25
63019;BME280;49105;46.046;10.760;2023-01-24T09:27:52;96869.81;;;1.98;76.88
63019;BME280;49105;46.046;10.760;2023-01-24T09:30:27;96861.91;;;2.13;77.19
63019;BME280;49105;46.046;10.760;2023-01-24T09:32:53;96863.66;;;2.34;76.81
63019;BME280;49105;46.046;10.760;2023-01-24T09:35:24;96855.22;;;2.60;76.75
63019;BME280;49105;46.046;10.760;2023-01-24T09:37:59;96858.13;;;2.78;76.66
63019;BME280;49105;46.046;10.760;2023-01-24T09:40:44;96863.66;;;2.96;76.21
63019;BME280;49105;46.046;10.760;2023-01-24T09:43:27;96855.84;;;3.10;76.16
63019;BME280;49105;46.046;10.760;2023-01-24T09:49:00;96864.59;;;3.37;76.22
63019;BME280;49105;46.046;10.760;2023-01-24T09:51:30;96853.56;;;3.48;76.14
63019;BME280;49105;46.046;10.760;2023-01-24T09:54:34;96853.00;;;3.59;76.11
63019;BME280;49105;46.046;10.760;2023-01-24T09:56:58;96848.75;;;3.65;75.86
63019;BME280;49105;46.046;10.760;2023-01-24T09:59:42;96848.41;;;3.75;76.02
63019;BME280;49105;46.046;10.760;2023-01-24T10:02:17;96848.78;;;3.78;75.70
63019;BME280;49105;46.046;10.760;2023-01-24T10:04:45;96852.81;;;3.74;75.75
63019;BME280;49105;46.046;10.760;2023-01-24T10:18:43;96837.06;;;3.47;75.74
63019;BME280;49105;46.046;10.760;2023-01-24T10:23:48;96825.56;;;3.48;75.91
63019;BME280;49105;46.046;10.760;2023-01-24T10:29:00;96825.19;;;3.65;76.07
63019;BME280;49105;46.046;10.760;2023-01-24T10:31:39;96817.56;;;3.70;75.67
63019;BME280;49105;46.046;10.760;2023-01-24T10:34:16;96809.31;;;3.73;75.55
63019;BME280;49105;46.046;10.760;2023-01-24T10:37:01;96797.63;;;3.82;75.61
63019;BME280;49105;46.046;10.760;2023-01-24T10:39:32;96799.03;;;3.98;75.42
63019;BME280;49105;46.046;10.760;2023-01-24T10:42:26;96789.75;;;4.15;75.29
63019;BME280;49105;46.046;10.760;2023-01-24T10:44:53;96790.97;;;4.26;75.16
63019;BME280;49105;46.046;10.760;2023-01-24T10:47:50;96794.38;;;4.33;74.89
63019;BME280;49105;46.046;10.760;2023-01-24T10:50:22;96782.66;;;4.42;74.70
63019;BME280;49105;46.046;10.760;2023-01-24T10:53:11;96781.41;;;4.58;74.94
63019;BME280;49105;46.046;10.760;2023-01-24T10:55:37;96777.94;;;4.71;74.40
63019;BME280;49105;46.046;10.760;2023-01-24T10:58:24;96775.88;;;4.86;74.65
63019;BME280;49105;46.046;10.760;2023-01-24T11:00:59;96772.19;;;5.01;74.50
63019;BME280;49105;46.046;10.760;2023-01-24T11:03:39;96769.47;;;5.14;73.81
63019;BME280;49105;46.046;10.760;2023-01-24T11:06:44;96773.13;;;5.13;73.83
63019;BME280;49105;46.046;10.760;2023-01-24T11:09:18;96771.34;;;5.07;73.65
63019;BME280;49105;46.046;10.760;2023-01-24T11:11:52;96772.78;;;5.03;73.85
63019;BME280;49105;46.046;10.760;2023-01-24T11:14:27;96770.34;;;5.01;73.83
63019;BME280;49105;46.046;10.760;2023-01-24T11:16:55;96774.00;;;4.93;73.76
63019;BME280;49105;46.046;10.760;2023-01-24T11:19:30;96773.66;;;4.83;73.54
63019;BME280;49105;46.046;10.760;2023-01-24T11:22:19;96760.38;;;4.78;74.15
63019;BME280;49105;46.046;10.760;2023-01-24T11:24:59;96752.13;;;4.75;73.97
63019;BME280;49105;46.046;10.760;2023-01-24T11:27:31;96756.56;;;4.67;73.99
63019;BME280;49105;46.046;10.760;2023-01-24T11:30:20;96748.94;;;4.59;73.99
63019;BME280;49105;46.046;10.760;2023-01-24T11:35:37;96749.78;;;4.46;74.10
63019;BME280;49105;46.046;10.760;2023-01-24T11:47:21;96737.28;;;4.48;74.26
63019;BME280;49105;46.046;10.760;2023-01-24T11:54:44;96723.75;;;4.58;73.52
63019;BME280;49105;46.046;10.760;2023-01-24T12:00:35;96722.88;;;4.71;73.33
63019;BME280;49105;46.046;10.760;2023-01-24T12:03:31;96710.94;;;4.82;73.31
63019;BME280;49105;46.046;10.760;2023-01-24T12:11:34;96703.63;;;5.22;73.12
63019;BME280;49105;46.046;10.760;2023-01-24T12:20:16;96697.84;;;5.38;73.19
63019;BME280;49105;46.046;10.760;2023-01-24T12:22:52;96688.34;;;5.44;73.02
63019;BME280;49105;46.046;10.760;2023-01-24T12:25:50;96694.97;;;5.46;72.49
63019;BME280;49105;46.046;10.760;2023-01-24T12:28:52;96679.81;;;5.48;72.95
63019;BME280;49105;46.046;10.760;2023-01-24T12:31:42;96686.44;;;5.51;72.80
63019;BME280;49105;46.046;10.760;2023-01-24T12:34:14;96680.94;;;5.59;72.64
63019;BME280;49105;46.046;10.760;2023-01-24T12:36:54;96677.41;;;5.72;72.60
63019;BME280;49105;46.046;10.760;2023-01-24T12:39:37;96680.59;;;5.74;72.46
63019;BME280;49105;46.046;10.760;2023-01-24T12:42:17;96677.41;;;5.72;72.46
63019;BME280;49105;46.046;10.760;2023-01-24T12:44:58;96675.78;;;5.71;72.20
63019;BME280;49105;46.046;10.760;2023-01-24T12:55:10;96663.09;;;5.68;72.06
63019;BME280;49105;46.046;10.760;2023-01-24T12:57:48;96668.94;;;5.70;71.57
63019;BME280;49105;46.046;10.760;2023-01-24T13:00:22;96671.13;;;5.73;71.60
63019;BME280;49105;46.046;10.760;2023-01-24T13:11:26;96662.22;;;5.99;71.68
63019;BME280;49105;46.046;10.760;2023-01-24T13:19:31;96662.22;;;6.36;71.36
63019;BME280;49105;46.046;10.760;2023-01-24T13:25:23;96659.47;;;6.61;70.98
63019;BME280;49105;46.046;10.760;2023-01-24T13:28:26;96651.28;;;6.69;70.91
63019;BME280;49105;46.046;10.760;2023-01-24T13:31:16;96648.22;;;6.72;70.68
63019;BME280;49105;46.046;10.760;2023-01-24T13:33:58;96648.22;;;6.72;70.73
63019;BME280;49105;46.046;10.760;2023-01-24T13:36:36;96642.00;;;6.66;70.36
63019;BME280;49105;46.046;10.760;2023-01-24T13:39:04;96643.63;;;6.67;69.92
63019;BME280;49105;46.046;10.760;2023-01-24T13:49:34;96643.06;;;6.47;69.96
63019;BME280;49105;46.046;10.760;2023-01-24T13:55:02;96644.75;;;6.41;70.03
63019;BME280;49105;46.046;10.760;2023-01-24T13:57:30;96641.78;;;6.38;69.64
63019;BME280;49105;46.046;10.760;2023-01-24T14:03:22;96644.03;;;6.34;69.71
63019;BME280;49105;46.046;10.760;2023-01-24T14:19:15;96643.97;;;6.22;70.30
63019;BME280;49105;46.046;10.760;2023-01-24T14:21:48;96648.06;;;6.18;70.59
63019;BME280;49105;46.046;10.760;2023-01-24T14:26:57;96648.56;;;6.09;70.38
63019;BME280;49105;46.046;10.760;2023-01-24T14:29:35;96648.22;;;6.05;70.28
63019;BME280;49105;46.046;10.760;2023-01-24T14:32:05;96645.22;;;6.02;70.18
63019;BME280;49105;46.046;10.760;2023-01-24T14:34:44;96643.44;;;5.95;70.09
63019;BME280;49105;46.046;10.760;2023-01-24T14:37:17;96652.19;;;5.89;70.76
63019;BME280;49105;46.046;10.760;2023-01-24T14:39:43;96649.41;;;5.84;70.25
63019;BME280;49105;46.046;10.760;2023-01-24T14:42:13;96656.91;;;5.81;70.34
63019;BME280;49105;46.046;10.760;2023-01-24T14:44:42;96654.28;;;5.81;70.49
63019;BME280;49105;46.046;10.760;2023-01-24T14:47:22;96652.03;;;5.84;70.79
63019;BME280;49105;46.046;10.760;2023-01-24T14:49:51;96660.50;;;5.86;70.41
63019;BME280;49105;46.046;10.760;2023-01-24T14:52:33;96651.59;;;5.87;70.88
63019;BME280;49105;46.046;10.760;2023-01-24T14:57:53;96664.00;;;5.80;70.96
63019;BME280;49105;46.046;10.760;2023-01-24T15:00:23;96661.78;;;5.77;71.12
63019;BME280;49105;46.046;10.760;2023-01-24T15:03:01;96665.44;;;5.76;71.03
63019;BME280;49105;46.046;10.760;2023-01-24T15:05:37;96666.69;;;5.73;70.89
63019;BME280;49105;46.046;10.760;2023-01-24T15:08:15;96682.06;;;5.70;71.13
63019;BME280;49105;46.046;10.760;2023-01-24T15:11:21;96684.53;;;5.65;70.90
63019;BME280;49105;46.046;10.760;2023-01-24T15:13:59;96682.34;;;5.62;71.34
63019;BME280;49105;46.046;10.760;2023-01-24T15:16:35;96682.09;;;5.63;71.28
63019;BME280;49105;46.046;10.760;2023-01-24T15:19:20;96686.56;;;5.63;71.06
63019;BME280;49105;46.046;10.760;2023-01-24T15:21:47;96680.72;;;5.61;71.12
63019;BME280;49105;46.046;10.760;2023-01-24T15:26:50;96686.44;;;5.51;71.34
63019;BME280;49105;46.046;10.760;2023-01-24T15:29:37;96685.91;;;5.42;71.80
63019;BME280;49105;46.046;10.760;2023-01-24T15:32:28;96689.97;;;5.38;72.11
63019;BME280;49105;46.046;10.760;2023-01-24T15:37:38;96682.56;;;5.35;71.57
63019;BME280;49105;46.046;10.760;2023-01-24T15:43:30;96690.88;;;5.26;71.51
63019;BME280;49105;46.046;10.760;2023-01-24T15:46:22;96691.94;;;5.18;72.00
63019;BME280;49105;46.046;10.760;2023-01-24T15:49:18;96692.81;;;5.12;72.25
63019;BME280;49105;46.046;10.760;2023-01-24T15:54:42;96693.22;;;5.09;72.14